Aérodrome :
LOGIN :

S'inscrire | Disclaimer

   EN    FR    IT 

 










Légende :    VFR   VFR Marginal   IFR   IFR Intensif   IFR Très Intensif
Visi : 
Plafond : 
>= 8 km
>= 3000ft
5 à 8 km
1000 à 3000 ft
1500m à 5 km
500 à 1000 ft
800 à 1500m
200 à 500 ft
< 800m
< 200 ft
Symboles :   Orages  Brouillard  Fortes neiges  Fortes précipitations  Vent > 20 kt
SIGMETs :   Divers  Orages  Givrage  Turbulence  Onde Orograph.  Cendres Volcan.






- Altitude de l'aérodrome : 183 ft
- Code IATA : HAJ


EDDV - Hanover/Langenhagen Int.

DERNIER METAR :
  • 060550Z 23013KT 9999 -RA BKN017 06/03 Q1010 TEMPO 24015G25KT BKN012

METARs EXPIRÉS :
  • 060520Z 24013KT 200V270 9999 BKN017 06/02 Q1010 TEMPO 24015G25KT BKN012
  • 060450Z 24014KT 9999 BKN019 06/02 Q1010 TEMPO 24015G25KT BKN012
  • 060420Z 24011KT 9999 FEW018 05/02 Q1010 NOSIG
  • 060350Z 22008KT 180V250 9999 FEW018 04/01 Q1010 NOSIG
  • 060320Z 22011KT 190V250 9999 BKN018 04/01 Q1011

TAF TAF EDDV
Valide du 06 à 06h jusqu'au 07 à 06h UTC


060500Z 0606/0706 22015KT 9999 SCT012 BKN020
TEMPO 0606/0706 24015G30KT 4500 -RA BKN008



MET'MAP, la Météo Aéronautique d'un coup d'oeil ! - Copyright ORBIFLY Décembre 2007 - Disclaimer

ORBIFLY MET'MAP TEAM :

Programmation & Développement : Alexandra Zaïnal
Sur une idée originale de : Baudouin d'Aumeries
Assistance à la programmation : Marc-Olivier Méhu
Soutien technique & logistique : Manuel Goepfert

Contact : metmap@orbifly.com




SOURCES & CREDITS :

   NOAA